Time;durP1;ratioP1;P1;durP2;ratioP2;P2;SDS_P1;SDS_P2;PMS_P1;PMS_P2;Temp;Humidity;BMP_temperature;BMP_pressure;BME280_temperature;BME280_humidity;BME280_pressure;Samples;Min_cycle;Max_cycle;Signal;HPM_P1;HPM_P2
2023/11/21 00:00:04;;;;;;;24.67;14.50;;;;;;;3.04;68.43;93262.94;509893;28;1875;-69
2023/11/21 00:00:20;;;;;;;21.17;13.43;;;;;;;3.05;69.08;93262.41;511339;28;1954;-70
2023/11/21 00:00:35;;;;;;;20.73;13.63;;;;;;;3.07;68.74;93256.47;511670;28;2999;-70
2023/11/21 00:00:51;;;;;;;20.40;13.27;;;;;;;3.07;68.46;93262.66;511775;28;1722;-70
2023/11/21 00:01:08;;;;;;;18.63;12.57;;;;;;;3.05;68.62;93256.97;511747;28;1668;-70
2023/11/21 00:01:24;;;;;;;20.13;13.02;;;;;;;3.10;68.33;93260.19;511741;28;1561;-70
2023/11/21 00:01:39;;;;;;;20.50;12.50;;;;;;;3.10;68.80;93258.16;510700;28;3086;-70
2023/11/21 00:01:55;;;;;;;19.35;12.00;;;;;;;3.11;68.38;93259.66;512318;28;1906;-69
2023/11/21 00:02:11;;;;;;;18.08;12.07;;;;;;;3.12;68.26;93266.59;512574;28;2233;-69
2023/11/21 00:02:28;;;;;;;17.60;12.30;;;;;;;3.13;68.02;93264.59;512352;28;2120;-69
2023/11/21 00:02:44;;;;;;;18.85;12.32;;;;;;;3.14;68.46;93266.81;512357;28;1718;-69
2023/11/21 00:02:59;;;;;;;19.38;12.45;;;;;;;3.15;68.05;93259.38;511809;28;1779;-69
2023/11/21 00:03:15;;;;;;;20.42;13.07;;;;;;;3.15;68.03;93262.88;510740;28;1923;-69
2023/11/21 00:03:31;;;;;;;20.33;13.47;;;;;;;3.16;67.55;93258.16;510173;28;3094;-69
2023/11/21 00:03:46;;;;;;;20.10;13.65;;;;;;;3.16;68.69;93269.81;510072;28;3633;-69
2023/11/21 00:04:02;;;;;;;21.77;14.15;;;;;;;3.17;67.97;93259.63;513174;28;1917;-69
2023/11/21 00:04:18;;;;;;;23.02;13.90;;;;;;;3.17;67.91;93257.63;512359;28;1834;-69
2023/11/21 00:04:33;;;;;;;23.57;14.53;;;;;;;3.17;67.89;93260.38;511320;28;1649;-69
2023/11/21 00:04:49;;;;;;;23.25;15.45;;;;;;;3.19;68.00;93262.59;512100;28;1747;-69
2023/11/21 00:05:04;;;;;;;23.63;15.30;;;;;;;3.19;67.98;93259.84;513781;28;1593;-69
2023/11/21 00:05:23;;;;;;;24.45;15.45;;;;;;;3.18;67.92;93264.59;511990;28;3135;-69
2023/11/21 00:05:38;;;;;;;25.08;15.90;;;;;;;3.18;67.72;93259.13;512396;28;1586;-69
2023/11/21 00:05:54;;;;;;;23.83;15.75;;;;;;;3.20;68.33;93266.81;510567;28;1692;-69
2023/11/21 00:06:09;;;;;;;25.23;15.63;;;;;;;3.20;68.25;93269.53;512257;28;3111;-69
2023/11/21 00:06:25;;;;;;;27.00;15.68;;;;;;;3.19;67.96;93254.41;512843;28;1811;-69
2023/11/21 00:06:41;;;;;;;26.53;15.80;;;;;;;3.21;67.64;93257.34;512121;28;3268;-69
2023/11/21 00:06:56;;;;;;;24.73;16.07;;;;;;;3.19;67.79;93266.06;511797;28;1697;-70
2023/11/21 00:07:11;;;;;;;25.50;17.30;;;;;;;3.20;67.58;93259.38;510078;28;3282;-69
2023/11/21 00:07:27;;;;;;;27.03;17.47;;;;;;;3.19;67.68;93257.13;513011;28;1642;-69
2023/11/21 00:07:43;;;;;;;27.75;17.58;;;;;;;3.19;67.74;93266.06;509791;28;3119;-69
2023/11/21 00:07:59;;;;;;;28.15;18.00;;;;;;;2.99;67.22;93242.63;510642;28;1804;-69
2023/11/21 00:08:14;;;;;;;29.90;18.03;;;;;;;3.14;67.58;93271.56;510695;28;3055;-69
2023/11/21 00:08:30;;;;;;;29.65;17.70;;;;;;;3.10;67.56;93274.53;509625;28;2112;-69
2023/11/21 00:08:45;;;;;;;27.70;17.73;;;;;;;3.07;68.05;93265.38;511084;28;3035;-69
2023/11/21 00:09:01;;;;;;;27.80;16.97;;;;;;;3.06;67.87;93268.63;512960;28;1617;-69
2023/11/21 00:09:17;;;;;;;24.45;15.25;;;;;;;3.04;67.36;93271.84;511322;28;1971;-69
2023/11/21 00:09:33;;;;;;;22.73;14.18;;;;;;;3.03;67.76;93270.34;512500;28;1989;-69
2023/11/21 00:09:48;;;;;;;21.70;13.32;;;;;;;3.02;67.66;93274.34;512074;28;1802;-69
2023/11/21 00:10:10;;;;;;;19.20;12.70;;;;;;;3.02;67.60;93266.16;511859;28;1716;-70
2023/11/21 00:10:26;;;;;;;20.08;12.80;;;;;;;3.02;67.48;93271.63;511982;28;3078;-70
2023/11/21 00:10:42;;;;;;;18.92;11.75;;;;;;;3.02;67.46;93268.16;510585;28;2386;-70
2023/11/21 00:11:00;;;;;;;18.97;11.03;;;;;;;3.00;67.49;93271.38;512498;28;2049;-70
2023/11/21 00:11:15;;;;;;;19.63;11.50;;;;;;;3.00;67.20;93276.09;509800;28;1866;-70
2023/11/21 00:11:31;;;;;;;17.90;11.60;;;;;;;3.00;67.17;93271.38;510591;28;1738;-70
2023/11/21 00:11:46;;;;;;;17.08;11.23;;;;;;;2.98;67.17;93268.41;509737;28;3279;-70
2023/11/21 00:12:02;;;;;;;16.90;11.33;;;;;;;2.99;67.31;93269.88;511943;28;1515;-69
2023/11/21 00:12:18;;;;;;;15.63;10.82;;;;;;;2.98;66.98;93271.16;512424;28;1678;-70
2023/11/21 00:12:34;;;;;;;17.10;10.57;;;;;;;2.98;66.91;93273.13;511213;28;1949;-70
2023/11/21 00:12:49;;;;;;;17.88;10.70;;;;;;;2.97;67.75;93266.19;512322;28;2099;-70
2023/11/21 00:13:05;;;;;;;17.70;11.30;;;;;;;2.97;66.86;93269.66;512815;28;1942;-70
2023/11/21 00:13:20;;;;;;;19.50;11.53;;;;;;;2.97;66.84;93266.94;512119;28;1768;-70
2023/11/21 00:13:36;;;;;;;21.17;11.17;;;;;;;2.97;67.35;93268.91;510232;28;2471;-70
2023/11/21 00:13:51;;;;;;;18.95;11.38;;;;;;;2.95;67.30;93269.41;509930;28;2138;-70
2023/11/21 00:14:08;;;;;;;16.87;10.83;;;;;;;2.97;67.32;93277.84;512042;28;1851;-70
2023/11/21 00:14:23;;;;;;;17.20;10.63;;;;;;;2.95;67.00;93269.41;511954;28;2413;-69
2023/11/21 00:14:39;;;;;;;16.10;10.27;;;;;;;2.96;66.88;93267.44;512269;28;1686;-69
2023/11/21 00:14:54;;;;;;;17.33;10.67;;;;;;;2.97;66.91;93271.63;512196;28;3129;-69
2023/11/21 00:15:13;;;;;;;18.10;11.38;;;;;;;2.95;67.27;93265.94;509686;28;2123;-69
2023/11/21 00:15:29;;;;;;;17.38;11.43;;;;;;;2.95;67.06;93280.31;512201;28;1788;-69
2023/11/21 00:15:44;;;;;;;17.15;11.07;;;;;;;2.94;67.02;93273.41;510184;28;2135;-69
2023/11/21 00:16:00;;;;;;;18.10;10.27;;;;;;;2.93;67.04;93273.88;512058;28;1717;-69
2023/11/21 00:16:15;;;;;;;16.60;10.20;;;;;;;2.95;66.89;93279.56;512241;28;2147;-69
2023/11/21 00:16:30;;;;;;;15.03;10.70;;;;;;;2.96;66.68;93272.91;511853;28;1526;-71
2023/11/21 00:16:46;;;;;;;14.07;9.80;;;;;;;2.96;67.42;93270.91;511471;28;1907;-69
2023/11/21 00:17:01;;;;;;;13.30;9.02;;;;;;;2.97;66.77;93272.38;512652;28;2363;-69
2023/11/21 00:17:17;;;;;;;14.43;9.00;;;;;;;2.97;66.35;93277.84;512320;28;1669;-69
2023/11/21 00:17:32;;;;;;;15.40;9.15;;;;;;;2.99;66.25;93271.88;510726;28;3073;-69
2023/11/21 00:17:48;;;;;;;16.83;9.83;;;;;;;2.99;67.46;93280.03;511568;28;1827;-69
2023/11/21 00:18:03;;;;;;;16.33;9.80;;;;;;;2.99;66.98;93278.06;511328;28;3397;-69
2023/11/21 00:18:19;;;;;;;13.70;9.50;;;;;;;2.99;67.21;93283.53;513024;28;3321;-69
2023/11/21 00:18:35;;;;;;;13.35;9.20;;;;;;;2.99;66.73;93275.34;509482;28;1953;-69
2023/11/21 00:18:51;;;;;;;16.08;9.43;;;;;;;2.97;66.87;93277.84;512515;28;1983;-70
2023/11/21 00:19:06;;;;;;;17.73;9.95;;;;;;;2.95;66.43;93274.88;512300;28;1309;-68
2023/11/21 00:19:22;;;;;;;18.73;10.43;;;;;;;2.89;66.77;93274.16;512132;28;1840;-70
2023/11/21 00:19:37;;;;;;;20.30;10.75;;;;;;;2.88;66.35;93275.41;511679;28;1981;-70
2023/11/21 00:19:53;;;;;;;20.50;10.87;;;;;;;2.86;66.25;93279.88;510931;28;2037;-70
2023/11/21 00:20:12;;;;;;;19.67;10.50;;;;;;;2.85;67.17;93276.41;512749;28;1033;-69
2023/11/21 00:20:27;;;;;;;18.70;10.27;;;;;;;2.86;66.75;93280.63;510320;28;3568;-70
2023/11/21 00:20:43;;;;;;;15.33;10.83;;;;;;;2.87;67.27;93273.19;511574;28;1574;-70
2023/11/21 00:20:59;;;;;;;16.85;11.07;;;;;;;2.87;66.75;93273.94;509773;28;3177;-69
2023/11/21 00:21:14;;;;;;;17.63;11.30;;;;;;;2.88;67.11;93280.84;512560;28;1851;-69
2023/11/21 00:21:30;;;;;;;17.63;11.50;;;;;;;2.90;66.87;93274.91;511735;28;3393;-70
2023/11/21 00:21:45;;;;;;;17.92;10.88;;;;;;;2.91;66.92;93279.09;513076;28;1820;-70
2023/11/21 00:22:00;;;;;;;18.30;11.97;;;;;;;2.90;67.27;93277.63;512714;28;2082;-70
2023/11/21 00:22:16;;;;;;;19.63;12.97;;;;;;;2.90;67.38;93275.63;511144;28;1921;-70
2023/11/21 00:22:35;;;;;;;19.75;13.23;;;;;;;2.91;66.97;93281.84;511822;28;1724;-70
2023/11/21 00:22:51;;;;;;;22.17;13.85;;;;;;;2.92;67.20;93277.88;512190;28;1578;-70
2023/11/21 00:23:06;;;;;;;22.63;14.10;;;;;;;2.91;67.45;93279.84;512250;28;1664;-70
2023/11/21 00:23:22;;;;;;;21.53;13.53;;;;;;;2.92;67.80;93275.88;512202;28;3312;-70
2023/11/21 00:23:37;;;;;;;23.58;13.65;;;;;;;2.93;67.52;93273.88;511777;28;1971;-70
2023/11/21 00:23:53;;;;;;;23.63;14.20;;;;;;;2.93;67.49;93266.47;512742;28;1899;-70
2023/11/21 00:24:09;;;;;;;23.52;14.57;;;;;;;2.93;67.22;93269.19;512922;28;1969;-70
2023/11/21 00:24:25;;;;;;;23.60;13.95;;;;;;;2.94;67.22;93270.69;512871;28;1977;-70
2023/11/21 00:24:41;;;;;;;23.08;13.05;;;;;;;2.94;66.90;93276.13;511726;28;1972;-69
2023/11/21 00:24:56;;;;;;;22.38;12.75;;;;;;;2.94;67.05;93267.94;512146;28;3094;-70
2023/11/21 00:25:14;;;;;;;20.75;13.10;;;;;;;2.95;67.42;93272.16;509565;28;1796;-70
2023/11/21 00:25:31;;;;;;;24.13;13.88;;;;;;;2.95;66.75;93272.16;509197;28;2231;-70
2023/11/21 00:25:46;;;;;;;23.17;13.07;;;;;;;2.94;67.06;93273.41;508424;28;1631;-70
2023/11/21 00:26:03;;;;;;;19.83;12.27;;;;;;;2.92;66.78;93275.16;510811;28;1495;-69
2023/11/21 00:26:19;;;;;;;17.52;12.18;;;;;;;2.90;66.72;93272.91;509786;28;2069;-70
2023/11/21 00:26:36;;;;;;;16.73;11.63;;;;;;;2.91;66.68;93276.38;508358;28;1962;-69
2023/11/21 00:26:52;;;;;;;17.20;12.20;;;;;;;2.90;66.81;93272.91;507959;28;2107;-70
2023/11/21 00:27:08;;;;;;;17.77;13.07;;;;;;;2.91;66.89;93273.66;510405;28;1724;-70
2023/11/21 00:27:23;;;;;;;20.33;13.23;;;;;;;2.92;66.62;93270.41;511536;28;2052;-70
2023/11/21 00:27:39;;;;;;;23.73;14.10;;;;;;;2.92;66.87;93275.16;511055;28;3361;-70
2023/11/21 00:27:54;;;;;;;21.83;13.93;;;;;;;2.91;66.89;93273.66;511504;28;3373;-70
2023/11/21 00:28:10;;;;;;;21.33;13.43;;;;;;;2.81;67.25;93273.22;511557;28;1720;-70
2023/11/21 00:28:26;;;;;;;20.58;13.30;;;;;;;2.71;67.61;93277.47;509814;28;2097;-70
2023/11/21 00:28:42;;;;;;;18.08;12.60;;;;;;;2.67;67.25;93276.25;513158;28;1976;-70
2023/11/21 00:28:57;;;;;;;20.08;12.43;;;;;;;2.62;67.21;93272.28;512365;28;1949;-70
2023/11/21 00:29:12;;;;;;;20.70;12.37;;;;;;;2.61;67.78;93279.00;512642;28;1539;-70
2023/11/21 00:29:28;;;;;;;18.98;12.52;;;;;;;2.59;67.86;93269.84;511812;28;1961;-70
2023/11/21 00:29:43;;;;;;;20.63;13.03;;;;;;;2.62;67.83;93274.28;510566;28;1905;-70
2023/11/21 00:29:59;;;;;;;21.50;13.25;;;;;;;2.63;68.70;93270.31;512331;28;2095;-70
2023/11/21 00:30:14;;;;;;;19.50;13.33;;;;;;;2.65;67.73;93273.28;513008;28;1014;-70
2023/11/21 00:30:30;;;;;;;21.35;13.85;;;;;;;2.66;68.25;93269.31;512194;28;1579;-70
2023/11/21 00:30:46;;;;;;;23.02;13.55;;;;;;;2.64;68.93;93275.25;510445;28;3076;-70
2023/11/21 00:31:01;;;;;;;23.33;13.73;;;;;;;2.64;68.65;93269.81;512026;28;1650;-70
2023/11/21 00:31:17;;;;;;;23.35;14.35;;;;;;;2.56;68.92;93274.31;510039;28;1823;-70
2023/11/21 00:31:32;;;;;;;20.77;14.43;;;;;;;2.49;68.61;93272.09;511134;28;1992;-70
2023/11/21 00:31:48;;;;;;;22.55;15.00;;;;;;;2.46;69.16;93275.84;510260;28;1650;-70
2023/11/21 00:32:05;;;;;;;27.40;15.73;;;;;;;2.45;69.20;93274.34;511912;28;2029;-70
2023/11/21 00:32:20;;;;;;;26.20;15.13;;;;;;;2.46;69.17;93272.34;513339;28;1761;-70
2023/11/21 00:32:37;;;;;;;22.23;14.35;;;;;;;2.47;69.13;93280.03;512609;28;2160;-70
2023/11/21 00:32:52;;;;;;;23.10;15.05;;;;;;;2.49;69.47;93280.25;511734;28;3710;-70
2023/11/21 00:33:08;;;;;;;22.15;15.02;;;;;;;2.52;69.35;93275.78;510751;28;2407;-70
2023/11/21 00:33:25;;;;;;;24.33;15.90;;;;;;;2.56;69.08;93276.28;513135;28;1888;-70
2023/11/21 00:33:40;;;;;;;26.83;16.33;;;;;;;2.58;69.20;93277.25;513142;28;1881;-70
2023/11/21 00:33:56;;;;;;;26.63;15.83;;;;;;;2.59;68.65;93270.59;513114;28;1772;-70
2023/11/21 00:34:12;;;;;;;23.40;15.30;;;;;;;2.63;68.85;93279.22;512138;28;1953;-70
2023/11/21 00:34:27;;;;;;;23.27;15.20;;;;;;;2.65;69.14;93273.28;511576;28;1690;-69
2023/11/21 00:34:43;;;;;;;26.50;16.23;;;;;;;2.66;69.06;93280.97;512270;28;3192;-70
2023/11/21 00:34:59;;;;;;;26.33;16.33;;;;;;;2.68;68.75;93278.47;512620;28;3248;-70
2023/11/21 00:35:15;;;;;;;25.23;15.93;;;;;;;2.70;68.39;93275.25;510608;28;3211;-70
2023/11/21 00:35:31;;;;;;;26.63;16.33;;;;;;;2.72;68.77;93278.97;512291;28;3209;-70
2023/11/21 00:35:46;;;;;;;24.70;15.83;;;;;;;2.72;68.95;93272.75;511108;28;2104;-70
2023/11/21 00:36:02;;;;;;;21.60;14.38;;;;;;;2.74;68.58;93273.75;512201;28;1776;-68
2023/11/21 00:36:18;;;;;;;24.47;14.03;;;;;;;2.74;68.75;93284.66;511009;28;1599;-70
2023/11/21 00:36:33;;;;;;;23.77;14.23;;;;;;;2.75;68.38;93269.03;511372;28;1805;-70
2023/11/21 00:36:49;;;;;;;21.63;14.87;;;;;;;2.75;68.81;93275.22;512152;28;1745;-70
2023/11/21 00:37:04;;;;;;;23.08;15.25;;;;;;;2.74;68.33;93281.91;511427;28;1207;-69
2023/11/21 00:37:19;;;;;;;22.90;15.00;;;;;;;2.76;68.67;93273.97;510963;28;1965;-70
2023/11/21 00:37:35;;;;;;;21.25;13.95;;;;;;;2.73;67.87;93282.44;509766;28;3085;-70
2023/11/21 00:37:50;;;;;;;23.17;14.17;;;;;;;2.73;68.49;93282.44;511418;28;3153;-70
2023/11/21 00:38:08;;;;;;;24.27;14.60;;;;;;;2.72;68.85;93281.69;511148;28;1660;-70
2023/11/21 00:38:24;;;;;;;22.05;14.15;;;;;;;2.73;68.67;93280.41;510435;28;3138;-69
2023/11/21 00:38:39;;;;;;;20.05;12.88;;;;;;;2.72;68.34;93278.22;511792;28;2648;-70
2023/11/21 00:38:55;;;;;;;18.90;12.43;;;;;;;2.70;68.70;93278.72;512796;28;1810;-69
2023/11/21 00:39:11;;;;;;;19.60;12.85;;;;;;;2.40;68.28;93241.66;509513;28;3205;-70
2023/11/21 00:39:27;;;;;;;21.52;12.80;;;;;;;2.64;68.43;93277.97;512431;28;1761;-69
2023/11/21 00:39:42;;;;;;;23.87;12.17;;;;;;;2.62;67.94;93274.28;511983;28;1804;-69
2023/11/21 00:39:58;;;;;;;22.08;12.30;;;;;;;2.59;68.41;93272.56;512660;28;1675;-70
2023/11/21 00:40:15;;;;;;;18.13;12.10;;;;;;;2.57;68.57;93278.53;511620;28;1977;-70
2023/11/21 00:40:30;;;;;;;16.17;11.35;;;;;;;2.55;68.40;93278.28;511924;28;2049;-70
2023/11/21 00:40:46;;;;;;;17.77;11.40;;;;;;;2.53;68.20;93275.31;510578;28;1991;-70
2023/11/21 00:41:02;;;;;;;17.83;11.10;;;;;;;2.50;67.83;93278.28;512756;28;1650;-70
2023/11/21 00:41:17;;;;;;;15.90;10.82;;;;;;;2.44;68.43;93275.59;510002;28;3211;-69
2023/11/21 00:41:33;;;;;;;16.58;10.77;;;;;;;2.42;68.49;93282.78;512266;28;982;-69
2023/11/21 00:41:48;;;;;;;15.93;10.83;;;;;;;2.37;68.20;93283.53;510531;28;3130;-69
2023/11/21 00:42:04;;;;;;;14.10;10.95;;;;;;;2.29;68.89;93265.00;512140;28;1673;-69
2023/11/21 00:42:21;;;;;;;15.30;11.20;;;;;;;2.25;68.99;93275.38;509138;28;3233;-69
2023/11/21 00:42:36;;;;;;;17.58;11.35;;;;;;;2.22;68.61;93275.66;512349;28;1519;-69
2023/11/21 00:42:52;;;;;;;17.67;11.18;;;;;;;2.24;69.15;93276.63;511249;28;2984;-69
2023/11/21 00:43:07;;;;;;;15.77;10.93;;;;;;;2.27;68.96;93275.63;511946;28;2147;-69
2023/11/21 00:43:23;;;;;;;15.18;10.93;;;;;;;2.28;68.98;93279.09;509698;28;2695;-69
2023/11/21 00:43:39;;;;;;;15.20;11.07;;;;;;;2.31;69.07;93272.66;510321;28;1733;-69
2023/11/21 00:43:54;;;;;;;16.60;11.20;;;;;;;2.29;69.16;93281.34;509048;28;2137;-69
2023/11/21 00:44:11;;;;;;;17.38;11.18;;;;;;;2.31;69.12;93275.38;510204;28;1633;-69
2023/11/21 00:44:26;;;;;;;17.02;11.65;;;;;;;2.32;69.18;93284.31;508341;28;1868;-69
2023/11/21 00:44:42;;;;;;;19.05;12.88;;;;;;;2.34;69.09;93282.53;510653;28;2136;-69
2023/11/21 00:44:57;;;;;;;18.43;12.77;;;;;;;2.34;68.97;93277.09;510670;28;1883;-70
2023/11/21 00:45:13;;;;;;;17.02;12.07;;;;;;;2.35;69.85;93278.59;510929;28;1054;-70
2023/11/21 00:45:28;;;;;;;18.20;12.43;;;;;;;2.38;69.51;93282.28;509656;28;3448;-70
2023/11/21 00:45:44;;;;;;;18.58;12.90;;;;;;;2.39;69.21;93287.25;512675;28;986;-70
2023/11/21 00:45:59;;;;;;;19.10;13.80;;;;;;;2.40;69.11;93275.13;510920;28;3325;-70
2023/11/21 00:46:15;;;;;;;21.50;13.68;;;;;;;2.43;68.94;93276.06;512577;28;1934;-70
2023/11/21 00:46:30;;;;;;;21.93;13.27;;;;;;;2.45;69.42;93279.78;511338;28;3335;-70
2023/11/21 00:46:46;;;;;;;21.63;13.82;;;;;;;2.48;69.28;93281.53;513014;28;1914;-69
2023/11/21 00:47:02;;;;;;;23.60;14.03;;;;;;;2.50;69.32;93272.84;511517;28;1936;-69
2023/11/21 00:47:18;;;;;;;21.52;13.60;;;;;;;2.52;68.77;93278.53;513743;28;1633;-69
2023/11/21 00:47:33;;;;;;;17.90;12.83;;;;;;;2.53;68.75;93272.59;509881;28;2392;-69
2023/11/21 00:47:49;;;;;;;18.98;13.02;;;;;;;2.56;68.63;93274.31;512621;28;1499;-70
2023/11/21 00:48:04;;;;;;;21.23;12.90;;;;;;;2.57;68.67;93278.53;509946;28;2261;-70
2023/11/21 00:48:20;;;;;;;21.58;13.40;;;;;;;2.57;68.32;93266.88;513072;28;1961;-70
2023/11/21 00:48:35;;;;;;;21.70;13.90;;;;;;;2.60;67.84;93272.06;512146;28;2024;-70
2023/11/21 00:48:51;;;;;;;22.90;14.13;;;;;;;2.62;68.12;93266.84;510571;28;1841;-70
2023/11/21 00:49:06;;;;;;;24.57;14.50;;;;;;;2.63;68.40;93276.50;511834;28;2046;-70
2023/11/21 00:49:22;;;;;;;24.67;14.93;;;;;;;2.64;68.49;93271.81;512190;28;2330;-70
2023/11/21 00:49:39;;;;;;;22.87;14.60;;;;;;;2.65;68.61;93274.03;510725;28;1868;-70
2023/11/21 00:49:54;;;;;;;22.13;14.10;;;;;;;2.63;68.54;93271.06;512053;28;1716;-70
2023/11/21 00:50:10;;;;;;;22.20;14.32;;;;;;;2.68;68.54;93272.28;512715;28;2072;-70
2023/11/21 00:50:25;;;;;;;24.70;15.27;;;;;;;2.68;68.49;93264.84;513283;28;1696;-69
2023/11/21 00:50:41;;;;;;;23.85;15.35;;;;;;;2.68;68.50;93264.84;511395;28;3265;-70
2023/11/21 00:50:56;;;;;;;23.50;14.30;;;;;;;2.70;68.08;93265.09;510641;28;2689;-70
2023/11/21 00:51:12;;;;;;;22.52;13.95;;;;;;;2.70;68.54;93261.63;511373;28;2366;-70
2023/11/21 00:51:27;;;;;;;20.67;14.93;;;;;;;2.70;68.35;93270.53;513562;28;1144;-70
2023/11/21 00:51:42;;;;;;;22.52;15.00;;;;;;;2.71;68.38;93265.81;511657;28;1973;-70
2023/11/21 00:51:58;;;;;;;24.67;14.40;;;;;;;2.70;68.05;93267.81;513110;28;1637;-69
2023/11/21 00:52:13;;;;;;;24.25;14.65;;;;;;;2.71;68.45;93271.25;513306;28;2112;-69
2023/11/21 00:52:29;;;;;;;22.27;14.53;;;;;;;2.70;68.01;93267.81;510377;28;3102;-69
2023/11/21 00:52:44;;;;;;;21.90;14.30;;;;;;;2.71;68.14;93272.00;512074;28;3479;-69
2023/11/21 00:53:00;;;;;;;20.83;14.33;;;;;;;2.71;68.72;93269.28;512795;28;1993;-69
2023/11/21 00:53:15;;;;;;;21.03;14.17;;;;;;;2.72;67.99;93278.97;513161;28;2032;-69
2023/11/21 00:53:31;;;;;;;22.75;14.25;;;;;;;2.73;68.19;93268.81;511010;28;1034;-69
2023/11/21 00:53:47;;;;;;;22.02;14.93;;;;;;;2.74;67.47;93287.38;511675;28;2096;-69
2023/11/21 00:54:03;;;;;;;23.40;14.80;;;;;;;2.74;67.47;93281.91;511004;28;2001;-69
2023/11/21 00:54:18;;;;;;;23.70;14.17;;;;;;;2.75;68.12;93269.03;512130;28;1657;-69
2023/11/21 00:54:34;;;;;;;22.05;14.27;;;;;;;2.76;68.35;93275.97;512836;28;1894;-69
2023/11/21 00:54:49;;;;;;;22.73;14.43;;;;;;;2.77;67.73;93274.72;511989;28;1629;-69
2023/11/21 00:55:07;;;;;;;22.52;14.45;;;;;;;2.77;67.89;93275.44;510343;28;1832;-69
2023/11/21 00:55:22;;;;;;;20.95;14.50;;;;;;;2.78;67.63;93281.66;512120;28;1567;-69
2023/11/21 00:55:41;;;;;;;21.65;14.43;;;;;;;2.78;67.86;93287.84;511735;28;2561;-69
2023/11/21 00:55:57;;;;;;;22.83;14.30;;;;;;;2.78;67.83;93282.41;513286;28;1479;-69
2023/11/21 00:56:13;;;;;;;22.25;14.48;;;;;;;2.77;67.25;93280.91;512352;28;1866;-69
2023/11/21 00:56:29;;;;;;;23.45;15.18;;;;;;;2.78;68.25;93281.66;511636;28;1676;-69
2023/11/21 00:56:47;;;;;;;23.90;15.77;;;;;;;2.78;67.41;93276.19;512333;28;2489;-69
2023/11/21 00:57:03;;;;;;;23.15;15.27;;;;;;;2.77;67.59;93280.91;512499;28;987;-69
2023/11/21 00:57:18;;;;;;;22.92;14.50;;;;;;;2.76;67.60;93275.97;512592;28;1910;-70
2023/11/21 00:57:35;;;;;;;23.70;15.00;;;;;;;2.76;67.71;93278.69;512106;28;942;-69
2023/11/21 00:57:50;;;;;;;22.90;14.98;;;;;;;2.75;68.06;93285.41;513533;28;1618;-70
2023/11/21 00:58:06;;;;;;;21.13;14.47;;;;;;;2.73;67.30;93280.41;509269;28;3137;-70
2023/11/21 00:58:22;;;;;;;25.02;14.52;;;;;;;2.72;68.12;93284.41;509972;28;2474;-70
2023/11/21 00:58:37;;;;;;;24.13;13.70;;;;;;;2.71;67.83;93271.25;511175;28;3227;-70
2023/11/21 00:58:53;;;;;;;20.63;13.82;;;;;;;2.66;67.89;93280.22;512786;28;1578;-70
2023/11/21 00:59:09;;;;;;;19.38;13.95;;;;;;;2.57;67.93;93277.78;511247;28;2032;-70
2023/11/21 00:59:24;;;;;;;21.50;13.53;;;;;;;2.44;68.56;93283.75;512962;28;1903;-70
2023/11/21 00:59:40;;;;;;;21.38;13.50;;;;;;;2.41;68.37;93275.84;511841;28;1689;-70
2023/11/21 00:59:55;;;;;;;20.20;13.30;;;;;;;2.35;68.64;93275.88;513183;28;1602;-70
2023/11/21 01:00:16;;;;;;;23.05;13.23;;;;;;;2.30;68.44;93276.59;511874;28;2352;-69
2023/11/21 01:00:33;;;;;;;23.60;13.95;;;;;;;2.30;68.89;93276.59;511785;28;1639;-70
2023/11/21 01:00:48;;;;;;;22.23;15.00;;;;;;;2.30;68.98;93282.06;511736;28;1925;-70
2023/11/21 01:01:04;;;;;;;20.23;14.87;;;;;;;2.25;69.22;93280.09;512009;28;1949;-70
2023/11/21 01:01:22;;;;;;;26.55;15.50;;;;;;;2.24;69.61;93279.38;511845;28;2101;-70
2023/11/21 01:01:38;;;;;;;29.58;16.52;;;;;;;2.21;69.83;93279.59;512563;28;1880;-70
2023/11/21 01:01:54;;;;;;;29.20;16.70;;;;;;;2.19;69.83;93282.09;511776;28;2040;-70
2023/11/21 01:02:10;;;;;;;29.67;16.75;;;;;;;2.19;69.55;93280.09;511396;28;3459;-70
2023/11/21 01:02:26;;;;;;;26.63;16.70;;;;;;;2.21;69.51;93280.34;511773;28;1939;-70
2023/11/21 01:02:41;;;;;;;24.23;16.17;;;;;;;2.24;69.89;93281.34;511424;28;3124;-69
2023/11/21 01:02:56;;;;;;;22.30;15.68;;;;;;;2.26;69.44;93273.41;512416;28;1546;-70
2023/11/21 01:03:12;;;;;;;23.70;15.97;;;;;;;2.28;69.66;93276.38;510560;28;1747;-70
2023/11/21 01:03:27;;;;;;;26.60;16.75;;;;;;;2.29;69.52;93275.13;511700;28;3540;-70
2023/11/21 01:03:43;;;;;;;27.17;17.40;;;;;;;2.28;69.64;93290.00;512876;28;2029;-70
2023/11/21 01:03:58;;;;;;;25.25;16.50;;;;;;;2.14;69.42;93255.63;512187;28;1152;-70
2023/11/21 01:04:14;;;;;;;23.93;15.87;;;;;;;2.34;69.86;93281.81;512453;28;3037;-70
2023/11/21 01:04:29;;;;;;;24.63;16.60;;;;;;;2.35;69.88;93280.56;510608;28;2059;-70
2023/11/21 01:04:45;;;;;;;24.70;16.33;;;;;;;2.37;69.92;93276.09;513166;28;2110;-70
2023/11/21 01:05:00;;;;;;;23.75;16.00;;;;;;;2.39;69.46;93279.06;512302;28;1070;-70
2023/11/21 01:05:16;;;;;;;23.90;16.13;;;;;;;2.41;69.87;93284.75;511340;28;1839;-70
2023/11/21 01:05:31;;;;;;;22.93;15.30;;;;;;;2.41;68.96;93282.03;513220;28;1049;-69
2023/11/21 01:05:49;;;;;;;22.50;15.27;;;;;;;2.42;69.13;93280.81;511464;28;1896;-69
2023/11/21 01:06:07;;;;;;;25.77;15.95;;;;;;;2.43;69.14;93285.00;512429;28;2041;-70
2023/11/21 01:06:23;;;;;;;24.95;15.65;;;;;;;2.45;69.58;93284.50;511826;28;1670;-70
2023/11/21 01:06:38;;;;;;;24.60;15.05;;;;;;;2.44;69.44;93281.03;509056;28;2748;-70
2023/11/21 01:06:54;;;;;;;21.80;14.60;;;;;;;2.45;68.85;93282.50;510594;28;1727;-70
2023/11/21 01:07:09;;;;;;;21.42;13.82;;;;;;;2.45;68.71;93285.22;509210;28;3085;-70
2023/11/21 01:07:25;;;;;;;22.67;13.93;;;;;;;2.44;68.87;93281.03;509088;28;2942;-70
2023/11/21 01:07:40;;;;;;;24.73;14.48;;;;;;;2.44;69.00;93281.03;510259;28;2308;-70
2023/11/21 01:07:56;;;;;;;25.20;14.13;;;;;;;2.45;68.90;93284.50;509443;28;1666;-70
2023/11/21 01:08:11;;;;;;;21.97;14.57;;;;;;;2.27;68.73;93255.84;510397;28;1933;-70
2023/11/21 01:08:27;;;;;;;22.42;15.27;;;;;;;2.42;69.28;93283.53;509625;28;1927;-69
2023/11/21 01:08:43;;;;;;;21.90;15.05;;;;;;;2.42;68.96;93283.53;511942;28;3439;-69
2023/11/21 01:08:59;;;;;;;23.20;14.50;;;;;;;2.42;69.15;93277.34;512603;28;1637;-70
2023/11/21 01:09:15;;;;;;;22.33;14.00;;;;;;;2.41;68.80;93273.84;509759;28;1926;-70
2023/11/21 01:09:32;;;;;;;19.13;13.90;;;;;;;2.42;68.97;93280.06;512463;28;2091;-70
2023/11/21 01:09:48;;;;;;;21.02;14.35;;;;;;;2.42;69.16;93272.63;510735;28;1919;-70
2023/11/21 01:10:07;;;;;;;22.20;14.32;;;;;;;2.44;69.23;93275.59;511069;28;1934;-70
2023/11/21 01:10:22;;;;;;;20.92;14.43;;;;;;;2.44;68.39;93275.59;511754;28;3518;-70
2023/11/21 01:10:38;;;;;;;22.00;14.60;;;;;;;2.35;69.20;93272.38;512330;28;1839;-70
2023/11/21 01:10:53;;;;;;;23.90;14.52;;;;;;;2.31;68.47;93269.94;512070;28;1944;-69
2023/11/21 01:11:11;;;;;;;28.17;15.90;;;;;;;2.30;69.15;93276.59;512590;28;1832;-70
2023/11/21 01:11:27;;;;;;;31.30;17.95;;;;;;;2.30;68.68;93269.19;511682;28;2031;-70
2023/11/21 01:11:42;;;;;;;28.73;17.52;;;;;;;2.29;68.81;93267.72;509496;28;2068;-70
2023/11/21 01:11:59;;;;;;;25.00;16.53;;;;;;;2.30;68.84;93271.16;512611;28;3139;-70
2023/11/21 01:12:17;;;;;;;26.85;16.38;;;;;;;2.29;69.00;93267.72;511221;28;1787;-70
2023/11/21 01:12:35;;;;;;;28.80;16.38;;;;;;;2.30;68.47;93266.47;512032;28;1926;-70
2023/11/21 01:12:51;;;;;;;24.42;15.07;;;;;;;2.28;69.06;93265.47;512393;28;1945;-70
2023/11/21 01:13:07;;;;;;;23.43;15.10;;;;;;;2.33;68.82;93264.72;510537;28;3035;-70
2023/11/21 01:13:22;;;;;;;29.20;17.08;;;;;;;2.34;68.55;93266.19;513021;28;1915;-70
2023/11/21 01:13:41;;;;;;;33.50;19.67;;;;;;;2.15;68.98;93243.47;512844;28;1883;-70
2023/11/21 01:13:57;;;;;;;32.58;19.65;;;;;;;2.39;68.38;93262.72;510002;28;1860;-69
2023/11/21 01:14:13;;;;;;;35.33;19.35;;;;;;;2.40;68.32;93269.66;509673;28;1675;-70
2023/11/21 01:14:28;;;;;;;35.50;19.95;;;;;;;2.41;68.38;93265.69;509021;28;1840;-70
2023/11/21 01:14:45;;;;;;;29.33;19.40;;;;;;;2.43;68.30;93263.19;510668;28;1603;-70
2023/11/21 01:15:00;;;;;;;29.02;18.35;;;;;;;2.31;68.44;93256.31;510247;28;1974;-70
2023/11/21 01:15:16;;;;;;;30.23;17.87;;;;;;;2.45;68.36;93260.72;507369;28;4272;-70
2023/11/21 01:15:32;;;;;;;31.88;18.00;;;;;;;2.43;68.42;93257.75;509591;28;1862;-70